sensor_id;sensor_type;location;lat;lon;timestamp;temperature;humidity
33827;DHT22;20128;45.582;5.298;2022-07-04T00:00:29;26.50;58.30
33827;DHT22;20128;45.582;5.298;2022-07-04T00:02:55;26.50;58.50
33827;DHT22;20128;45.582;5.298;2022-07-04T00:05:22;26.40;58.90
33827;DHT22;20128;45.582;5.298;2022-07-04T00:07:49;26.40;59.30
33827;DHT22;20128;45.582;5.298;2022-07-04T00:10:18;26.40;59.20
33827;DHT22;20128;45.582;5.298;2022-07-04T00:12:44;26.40;59.30
33827;DHT22;20128;45.582;5.298;2022-07-04T00:15:11;26.40;59.10
33827;DHT22;20128;45.582;5.298;2022-07-04T00:17:37;26.40;59.00
33827;DHT22;20128;45.582;5.298;2022-07-04T00:20:07;26.30;59.00
33827;DHT22;20128;45.582;5.298;2022-07-04T00:22:33;26.30;58.50
33827;DHT22;20128;45.582;5.298;2022-07-04T00:24:59;26.30;59.00
33827;DHT22;20128;45.582;5.298;2022-07-04T00:27:25;26.20;59.10
33827;DHT22;20128;45.582;5.298;2022-07-04T00:29:51;26.20;59.20
33827;DHT22;20128;45.582;5.298;2022-07-04T00:32:17;26.20;59.50
33827;DHT22;20128;45.582;5.298;2022-07-04T00:34:43;26.20;59.30
33827;DHT22;20128;45.582;5.298;2022-07-04T00:37:09;26.10;59.00
33827;DHT22;20128;45.582;5.298;2022-07-04T00:39:35;26.10;59.50
33827;DHT22;20128;45.582;5.298;2022-07-04T00:42:00;26.10;59.60
33827;DHT22;20128;45.582;5.298;2022-07-04T00:44:26;26.20;59.10
33827;DHT22;20128;45.582;5.298;2022-07-04T00:46:52;26.10;58.30
33827;DHT22;20128;45.582;5.298;2022-07-04T00:49:18;26.10;58.60
33827;DHT22;20128;45.582;5.298;2022-07-04T00:51:44;26.10;57.50
33827;DHT22;20128;45.582;5.298;2022-07-04T00:54:12;26.00;57.70
33827;DHT22;20128;45.582;5.298;2022-07-04T00:56:41;26.00;58.70
33827;DHT22;20128;45.582;5.298;2022-07-04T00:59:08;26.00;58.80
33827;DHT22;20128;45.582;5.298;2022-07-04T01:01:35;26.00;58.40
33827;DHT22;20128;45.582;5.298;2022-07-04T01:04:05;26.00;58.40
33827;DHT22;20128;45.582;5.298;2022-07-04T01:06:32;26.00;58.60
33827;DHT22;20128;45.582;5.298;2022-07-04T01:08:58;26.00;58.70
33827;DHT22;20128;45.582;5.298;2022-07-04T01:11:24;26.00;58.50
33827;DHT22;20128;45.582;5.298;2022-07-04T01:13:50;26.00;58.70
33827;DHT22;20128;45.582;5.298;2022-07-04T01:16:16;26.10;58.00
33827;DHT22;20128;45.582;5.298;2022-07-04T01:18:42;26.00;58.50
33827;DHT22;20128;45.582;5.298;2022-07-04T01:21:07;26.00;58.50
33827;DHT22;20128;45.582;5.298;2022-07-04T01:23:40;26.00;58.60
33827;DHT22;20128;45.582;5.298;2022-07-04T01:26:06;26.00;58.90
33827;DHT22;20128;45.582;5.298;2022-07-04T01:28:33;25.90;58.50
33827;DHT22;20128;45.582;5.298;2022-07-04T01:30:59;25.90;57.40
33827;DHT22;20128;45.582;5.298;2022-07-04T01:33:25;25.70;57.20
33827;DHT22;20128;45.582;5.298;2022-07-04T01:35:51;25.70;56.70
33827;DHT22;20128;45.582;5.298;2022-07-04T01:38:17;25.60;56.10
33827;DHT22;20128;45.582;5.298;2022-07-04T01:40:42;25.50;56.70
33827;DHT22;20128;45.582;5.298;2022-07-04T01:43:08;25.40;56.80
33827;DHT22;20128;45.582;5.298;2022-07-04T01:45:34;25.30;57.60
33827;DHT22;20128;45.582;5.298;2022-07-04T01:50:30;25.20;57.40
33827;DHT22;20128;45.582;5.298;2022-07-04T01:52:55;25.20;57.70
33827;DHT22;20128;45.582;5.298;2022-07-04T01:55:21;25.20;57.20
33827;DHT22;20128;45.582;5.298;2022-07-04T01:57:47;25.20;57.90
33827;DHT22;20128;45.582;5.298;2022-07-04T02:00:13;25.20;57.10
33827;DHT22;20128;45.582;5.298;2022-07-04T02:02:57;25.20;56.90
33827;DHT22;20128;45.582;5.298;2022-07-04T02:05:23;25.20;57.30
33827;DHT22;20128;45.582;5.298;2022-07-04T02:07:49;25.20;56.90
33827;DHT22;20128;45.582;5.298;2022-07-04T02:10:14;25.20;57.80
33827;DHT22;20128;45.582;5.298;2022-07-04T02:12:40;25.20;58.20
33827;DHT22;20128;45.582;5.298;2022-07-04T02:15:24;25.30;58.50
33827;DHT22;20128;45.582;5.298;2022-07-04T02:17:50;25.30;57.80
33827;DHT22;20128;45.582;5.298;2022-07-04T02:20:16;25.40;58.10
33827;DHT22;20128;45.582;5.298;2022-07-04T02:22:42;25.40;57.70
33827;DHT22;20128;45.582;5.298;2022-07-04T02:25:08;25.40;57.90
33827;DHT22;20128;45.582;5.298;2022-07-04T02:27:34;25.30;56.90
33827;DHT22;20128;45.582;5.298;2022-07-04T02:29:59;25.30;56.30
33827;DHT22;20128;45.582;5.298;2022-07-04T02:32:25;25.30;56.50
33827;DHT22;20128;45.582;5.298;2022-07-04T02:34:51;25.20;56.20
33827;DHT22;20128;45.582;5.298;2022-07-04T02:37:17;25.20;56.80
33827;DHT22;20128;45.582;5.298;2022-07-04T02:39:43;25.10;56.70
33827;DHT22;20128;45.582;5.298;2022-07-04T02:42:09;25.10;57.10
33827;DHT22;20128;45.582;5.298;2022-07-04T02:44:34;25.10;56.10
33827;DHT22;20128;45.582;5.298;2022-07-04T02:47:00;25.00;56.10
33827;DHT22;20128;45.582;5.298;2022-07-04T02:49:26;24.90;56.60
33827;DHT22;20128;45.582;5.298;2022-07-04T02:51:52;24.90;57.00
33827;DHT22;20128;45.582;5.298;2022-07-04T02:54:18;24.80;57.10
33827;DHT22;20128;45.582;5.298;2022-07-04T02:56:44;24.80;57.30
33827;DHT22;20128;45.582;5.298;2022-07-04T02:59:09;24.80;57.50
33827;DHT22;20128;45.582;5.298;2022-07-04T03:01:35;24.70;57.60
33827;DHT22;20128;45.582;5.298;2022-07-04T03:04:01;24.70;58.00
33827;DHT22;20128;45.582;5.298;2022-07-04T03:06:28;24.70;57.80
33827;DHT22;20128;45.582;5.298;2022-07-04T03:08:53;24.60;57.60
33827;DHT22;20128;45.582;5.298;2022-07-04T03:11:19;24.60;58.10
33827;DHT22;20128;45.582;5.298;2022-07-04T03:13:45;24.50;58.10
33827;DHT22;20128;45.582;5.298;2022-07-04T03:16:11;24.50;58.00
33827;DHT22;20128;45.582;5.298;2022-07-04T03:18:37;24.50;58.10
33827;DHT22;20128;45.582;5.298;2022-07-04T03:21:03;24.50;58.30
33827;DHT22;20128;45.582;5.298;2022-07-04T03:23:32;24.50;57.90
33827;DHT22;20128;45.582;5.298;2022-07-04T03:25:58;24.60;58.00
33827;DHT22;20128;45.582;5.298;2022-07-04T03:28:24;24.50;58.00
33827;DHT22;20128;45.582;5.298;2022-07-04T03:30:50;24.50;57.80
33827;DHT22;20128;45.582;5.298;2022-07-04T03:33:16;24.50;58.20
33827;DHT22;20128;45.582;5.298;2022-07-04T03:35:42;24.40;58.00
33827;DHT22;20128;45.582;5.298;2022-07-04T03:38:07;24.40;58.50
33827;DHT22;20128;45.582;5.298;2022-07-04T03:40:33;24.30;58.70
33827;DHT22;20128;45.582;5.298;2022-07-04T03:43:00;24.30;58.50
33827;DHT22;20128;45.582;5.298;2022-07-04T03:45:26;24.30;58.70
33827;DHT22;20128;45.582;5.298;2022-07-04T03:47:52;24.20;58.80
33827;DHT22;20128;45.582;5.298;2022-07-04T03:50:18;24.20;58.80
33827;DHT22;20128;45.582;5.298;2022-07-04T03:52:43;24.10;58.90
33827;DHT22;20128;45.582;5.298;2022-07-04T03:55:10;24.10;59.20
33827;DHT22;20128;45.582;5.298;2022-07-04T03:57:35;24.10;59.30
33827;DHT22;20128;45.582;5.298;2022-07-04T04:00:02;24.00;59.40
33827;DHT22;20128;45.582;5.298;2022-07-04T04:02:28;24.00;59.60
33827;DHT22;20128;45.582;5.298;2022-07-04T04:04:54;24.10;59.60
33827;DHT22;20128;45.582;5.298;2022-07-04T04:07:38;24.10;59.90
33827;DHT22;20128;45.582;5.298;2022-07-04T04:10:04;24.10;60.00
33827;DHT22;20128;45.582;5.298;2022-07-04T04:12:30;24.10;60.00
33827;DHT22;20128;45.582;5.298;2022-07-04T04:14:55;24.20;59.60
33827;DHT22;20128;45.582;5.298;2022-07-04T04:17:21;24.20;59.80
33827;DHT22;20128;45.582;5.298;2022-07-04T04:19:47;24.10;59.50
33827;DHT22;20128;45.582;5.298;2022-07-04T04:22:12;24.10;59.40
33827;DHT22;20128;45.582;5.298;2022-07-04T04:24:38;24.10;59.70
33827;DHT22;20128;45.582;5.298;2022-07-04T04:27:04;24.00;59.90
33827;DHT22;20128;45.582;5.298;2022-07-04T04:29:29;24.10;60.00
33827;DHT22;20128;45.582;5.298;2022-07-04T04:31:55;24.00;59.20
33827;DHT22;20128;45.582;5.298;2022-07-04T04:34:21;24.00;59.70
33827;DHT22;20128;45.582;5.298;2022-07-04T04:36:46;23.90;59.90
33827;DHT22;20128;45.582;5.298;2022-07-04T04:39:12;23.90;59.70
33827;DHT22;20128;45.582;5.298;2022-07-04T04:41:39;23.80;60.00
33827;DHT22;20128;45.582;5.298;2022-07-04T04:44:04;23.70;60.30
33827;DHT22;20128;45.582;5.298;2022-07-04T04:46:31;23.70;60.90
33827;DHT22;20128;45.582;5.298;2022-07-04T04:48:56;23.70;61.00
33827;DHT22;20128;45.582;5.298;2022-07-04T04:51:22;23.80;61.00
33827;DHT22;20128;45.582;5.298;2022-07-04T04:53:48;23.80;60.90
33827;DHT22;20128;45.582;5.298;2022-07-04T04:56:13;23.80;61.10
33827;DHT22;20128;45.582;5.298;2022-07-04T04:58:39;23.90;61.00
33827;DHT22;20128;45.582;5.298;2022-07-04T05:01:05;24.00;61.00
33827;DHT22;20128;45.582;5.298;2022-07-04T05:03:31;24.00;60.90
33827;DHT22;20128;45.582;5.298;2022-07-04T05:05:57;24.10;61.00
33827;DHT22;20128;45.582;5.298;2022-07-04T05:08:22;24.10;60.90
33827;DHT22;20128;45.582;5.298;2022-07-04T05:10:51;24.20;60.60
33827;DHT22;20128;45.582;5.298;2022-07-04T05:13:17;24.30;60.50
33827;DHT22;20128;45.582;5.298;2022-07-04T05:15:43;24.30;60.40
33827;DHT22;20128;45.582;5.298;2022-07-04T05:18:08;24.40;60.30
33827;DHT22;20128;45.582;5.298;2022-07-04T05:20:34;24.40;60.40
33827;DHT22;20128;45.582;5.298;2022-07-04T05:23:00;24.50;59.80
33827;DHT22;20128;45.582;5.298;2022-07-04T05:25:25;24.40;59.70
33827;DHT22;20128;45.582;5.298;2022-07-04T05:27:51;24.40;59.70
33827;DHT22;20128;45.582;5.298;2022-07-04T05:30:17;24.30;59.80
33827;DHT22;20128;45.582;5.298;2022-07-04T05:32:42;24.10;60.00
33827;DHT22;20128;45.582;5.298;2022-07-04T05:35:08;24.10;60.20
33827;DHT22;20128;45.582;5.298;2022-07-04T05:37:34;24.20;60.20
33827;DHT22;20128;45.582;5.298;2022-07-04T05:40:01;24.20;59.90
33827;DHT22;20128;45.582;5.298;2022-07-04T05:42:27;24.20;60.00
33827;DHT22;20128;45.582;5.298;2022-07-04T05:44:53;24.30;60.10
33827;DHT22;20128;45.582;5.298;2022-07-04T05:47:19;24.30;60.00
33827;DHT22;20128;45.582;5.298;2022-07-04T05:49:49;24.20;60.10
33827;DHT22;20128;45.582;5.298;2022-07-04T05:52:15;24.20;59.90
33827;DHT22;20128;45.582;5.298;2022-07-04T05:54:40;24.10;59.90
33827;DHT22;20128;45.582;5.298;2022-07-04T05:57:06;24.10;60.30
33827;DHT22;20128;45.582;5.298;2022-07-04T05:59:32;24.10;60.30
33827;DHT22;20128;45.582;5.298;2022-07-04T06:01:58;24.10;60.60
33827;DHT22;20128;45.582;5.298;2022-07-04T06:04:23;24.00;60.70
33827;DHT22;20128;45.582;5.298;2022-07-04T06:06:49;24.00;60.90
33827;DHT22;20128;45.582;5.298;2022-07-04T06:09:15;24.00;60.70
33827;DHT22;20128;45.582;5.298;2022-07-04T06:11:40;24.00;60.80
33827;DHT22;20128;45.582;5.298;2022-07-04T06:14:06;24.00;60.90
33827;DHT22;20128;45.582;5.298;2022-07-04T06:16:32;24.00;60.80
33827;DHT22;20128;45.582;5.298;2022-07-04T06:18:57;24.00;60.80
33827;DHT22;20128;45.582;5.298;2022-07-04T06:21:23;24.00;60.90
33827;DHT22;20128;45.582;5.298;2022-07-04T06:23:48;24.00;60.90
33827;DHT22;20128;45.582;5.298;2022-07-04T06:26:14;24.00;61.00
33827;DHT22;20128;45.582;5.298;2022-07-04T06:28:40;24.00;61.20
33827;DHT22;20128;45.582;5.298;2022-07-04T06:31:05;23.90;61.00
33827;DHT22;20128;45.582;5.298;2022-07-04T06:33:31;24.00;61.00
33827;DHT22;20128;45.582;5.298;2022-07-04T06:35:57;24.00;61.00
33827;DHT22;20128;45.582;5.298;2022-07-04T06:38:28;24.10;60.90
33827;DHT22;20128;45.582;5.298;2022-07-04T06:40:56;24.00;60.80
33827;DHT22;20128;45.582;5.298;2022-07-04T06:43:23;24.10;61.00
33827;DHT22;20128;45.582;5.298;2022-07-04T06:45:49;24.20;60.60
33827;DHT22;20128;45.582;5.298;2022-07-04T06:48:15;24.20;60.30
33827;DHT22;20128;45.582;5.298;2022-07-04T06:50:41;24.30;60.40
33827;DHT22;20128;45.582;5.298;2022-07-04T06:53:08;24.30;60.10
33827;DHT22;20128;45.582;5.298;2022-07-04T06:55:38;24.40;60.20
33827;DHT22;20128;45.582;5.298;2022-07-04T06:58:05;24.40;60.00
33827;DHT22;20128;45.582;5.298;2022-07-04T07:00:31;24.30;60.20
33827;DHT22;20128;45.582;5.298;2022-07-04T07:02:58;24.30;60.40
33827;DHT22;20128;45.582;5.298;2022-07-04T07:05:28;24.30;60.40
33827;DHT22;20128;45.582;5.298;2022-07-04T07:07:54;24.30;60.50
33827;DHT22;20128;45.582;5.298;2022-07-04T07:10:20;24.30;60.60
33827;DHT22;20128;45.582;5.298;2022-07-04T07:12:46;24.40;60.70
33827;DHT22;20128;45.582;5.298;2022-07-04T07:15:12;24.40;60.70
33827;DHT22;20128;45.582;5.298;2022-07-04T07:17:39;24.40;60.60
33827;DHT22;20128;45.582;5.298;2022-07-04T07:20:05;24.50;60.70
33827;DHT22;20128;45.582;5.298;2022-07-04T07:22:31;24.50;60.90
33827;DHT22;20128;45.582;5.298;2022-07-04T07:24:57;24.70;60.20
33827;DHT22;20128;45.582;5.298;2022-07-04T07:27:22;24.60;60.30
33827;DHT22;20128;45.582;5.298;2022-07-04T07:29:48;24.70;60.20
33827;DHT22;20128;45.582;5.298;2022-07-04T07:32:14;24.70;60.40
33827;DHT22;20128;45.582;5.298;2022-07-04T07:34:40;24.70;60.30
33827;DHT22;20128;45.582;5.298;2022-07-04T07:37:06;24.80;60.30
33827;DHT22;20128;45.582;5.298;2022-07-04T07:39:31;24.80;60.00
33827;DHT22;20128;45.582;5.298;2022-07-04T07:41:57;24.90;60.20
33827;DHT22;20128;45.582;5.298;2022-07-04T07:44:23;24.90;60.10
33827;DHT22;20128;45.582;5.298;2022-07-04T07:46:48;25.00;60.10
33827;DHT22;20128;45.582;5.298;2022-07-04T07:49:14;25.00;60.20
33827;DHT22;20128;45.582;5.298;2022-07-04T07:51:40;25.00;60.10
33827;DHT22;20128;45.582;5.298;2022-07-04T07:54:05;25.10;60.00
33827;DHT22;20128;45.582;5.298;2022-07-04T07:56:31;25.10;59.90
33827;DHT22;20128;45.582;5.298;2022-07-04T07:58:57;25.10;60.00
33827;DHT22;20128;45.582;5.298;2022-07-04T08:01:23;25.10;59.90
33827;DHT22;20128;45.582;5.298;2022-07-04T08:03:49;25.20;60.00
33827;DHT22;20128;45.582;5.298;2022-07-04T08:06:33;25.30;60.30
33827;DHT22;20128;45.582;5.298;2022-07-04T08:08:59;25.40;59.90
33827;DHT22;20128;45.582;5.298;2022-07-04T08:11:25;25.50;59.30
33827;DHT22;20128;45.582;5.298;2022-07-04T08:13:52;25.40;59.50
33827;DHT22;20128;45.582;5.298;2022-07-04T08:16:17;25.50;60.00
33827;DHT22;20128;45.582;5.298;2022-07-04T08:18:43;25.50;59.80
33827;DHT22;20128;45.582;5.298;2022-07-04T08:21:09;25.50;60.10
33827;DHT22;20128;45.582;5.298;2022-07-04T08:23:35;25.70;60.10
33827;DHT22;20128;45.582;5.298;2022-07-04T08:26:02;25.80;59.70
33827;DHT22;20128;45.582;5.298;2022-07-04T08:28:28;25.80;59.70
33827;DHT22;20128;45.582;5.298;2022-07-04T08:30:55;25.90;59.30
33827;DHT22;20128;45.582;5.298;2022-07-04T08:33:22;26.00;58.70
33827;DHT22;20128;45.582;5.298;2022-07-04T08:35:47;26.00;58.70
33827;DHT22;20128;45.582;5.298;2022-07-04T08:38:13;26.00;59.10
33827;DHT22;20128;45.582;5.298;2022-07-04T08:40:41;26.10;59.50
33827;DHT22;20128;45.582;5.298;2022-07-04T08:43:06;26.20;58.70
33827;DHT22;20128;45.582;5.298;2022-07-04T08:45:33;26.20;58.40
33827;DHT22;20128;45.582;5.298;2022-07-04T08:48:04;26.30;57.90
33827;DHT22;20128;45.582;5.298;2022-07-04T08:50:47;26.40;58.00
33827;DHT22;20128;45.582;5.298;2022-07-04T08:53:18;26.40;57.90
33827;DHT22;20128;45.582;5.298;2022-07-04T08:55:46;26.50;58.10
33827;DHT22;20128;45.582;5.298;2022-07-04T08:58:31;26.60;58.00
33827;DHT22;20128;45.582;5.298;2022-07-04T09:01:04;26.70;57.60
33827;DHT22;20128;45.582;5.298;2022-07-04T09:03:31;26.80;57.70
33827;DHT22;20128;45.582;5.298;2022-07-04T09:05:57;26.70;57.10
33827;DHT22;20128;45.582;5.298;2022-07-04T09:08:23;26.70;57.00
33827;DHT22;20128;45.582;5.298;2022-07-04T09:10:50;26.60;57.70
33827;DHT22;20128;45.582;5.298;2022-07-04T09:13:16;26.50;58.00
33827;DHT22;20128;45.582;5.298;2022-07-04T09:15:44;26.50;58.40
33827;DHT22;20128;45.582;5.298;2022-07-04T09:20:50;26.20;59.00
33827;DHT22;20128;45.582;5.298;2022-07-04T09:23:24;26.10;59.30
33827;DHT22;20128;45.582;5.298;2022-07-04T09:26:07;26.00;59.70
33827;DHT22;20128;45.582;5.298;2022-07-04T09:28:33;26.00;59.70
33827;DHT22;20128;45.582;5.298;2022-07-04T09:30:59;25.90;59.70
33827;DHT22;20128;45.582;5.298;2022-07-04T09:33:57;25.90;59.80
33827;DHT22;20128;45.582;5.298;2022-07-04T09:36:28;25.90;59.80
33827;DHT22;20128;45.582;5.298;2022-07-04T09:41:54;25.80;59.60
33827;DHT22;20128;45.582;5.298;2022-07-04T09:44:21;25.80;59.70
33827;DHT22;20128;45.582;5.298;2022-07-04T09:46:47;25.80;59.60
33827;DHT22;20128;45.582;5.298;2022-07-04T09:49:13;25.80;59.60
33827;DHT22;20128;45.582;5.298;2022-07-04T09:54:17;25.80;60.20
33827;DHT22;20128;45.582;5.298;2022-07-04T09:56:45;25.80;60.30
33827;DHT22;20128;45.582;5.298;2022-07-04T09:59:11;25.80;60.40
33827;DHT22;20128;45.582;5.298;2022-07-04T10:01:37;25.80;60.70
33827;DHT22;20128;45.582;5.298;2022-07-04T10:04:05;25.80;60.80
33827;DHT22;20128;45.582;5.298;2022-07-04T10:06:34;25.80;60.80
33827;DHT22;20128;45.582;5.298;2022-07-04T10:09:14;25.80;60.70
33827;DHT22;20128;45.582;5.298;2022-07-04T10:11:41;25.80;60.70
33827;DHT22;20128;45.582;5.298;2022-07-04T10:14:09;25.90;60.60
33827;DHT22;20128;45.582;5.298;2022-07-04T10:16:36;25.90;60.70
33827;DHT22;20128;45.582;5.298;2022-07-04T10:19:02;25.90;60.80
33827;DHT22;20128;45.582;5.298;2022-07-04T10:21:29;26.00;60.80
33827;DHT22;20128;45.582;5.298;2022-07-04T10:23:55;26.00;60.60
33827;DHT22;20128;45.582;5.298;2022-07-04T10:26:21;26.10;60.60
33827;DHT22;20128;45.582;5.298;2022-07-04T10:28:51;26.10;60.70
33827;DHT22;20128;45.582;5.298;2022-07-04T10:31:19;26.20;60.20
33827;DHT22;20128;45.582;5.298;2022-07-04T10:33:46;26.30;60.00
33827;DHT22;20128;45.582;5.298;2022-07-04T10:36:23;26.30;60.00
33827;DHT22;20128;45.582;5.298;2022-07-04T10:38:54;26.40;60.10
33827;DHT22;20128;45.582;5.298;2022-07-04T10:41:21;26.40;60.10
33827;DHT22;20128;45.582;5.298;2022-07-04T10:48:51;27.00;58.60
33827;DHT22;20128;45.582;5.298;2022-07-04T10:54:07;27.50;58.30
33827;DHT22;20128;45.582;5.298;2022-07-04T11:01:45;28.20;56.30
33827;DHT22;20128;45.582;5.298;2022-07-04T11:04:11;28.50;55.60
33827;DHT22;20128;45.582;5.298;2022-07-04T11:09:22;28.70;54.50
33827;DHT22;20128;45.582;5.298;2022-07-04T11:11:54;28.70;54.10
33827;DHT22;20128;45.582;5.298;2022-07-04T11:14:42;28.80;53.60
33827;DHT22;20128;45.582;5.298;2022-07-04T11:17:20;28.90;53.60
33827;DHT22;20128;45.582;5.298;2022-07-04T11:19:59;28.80;53.30
33827;DHT22;20128;45.582;5.298;2022-07-04T11:22:25;28.70;53.70
33827;DHT22;20128;45.582;5.298;2022-07-04T11:24:52;28.50;53.00
33827;DHT22;20128;45.582;5.298;2022-07-04T11:27:21;28.40;53.50
33827;DHT22;20128;45.582;5.298;2022-07-04T11:29:54;28.20;53.80
33827;DHT22;20128;45.582;5.298;2022-07-04T11:32:20;28.20;54.30
33827;DHT22;20128;45.582;5.298;2022-07-04T11:34:47;28.10;54.70
33827;DHT22;20128;45.582;5.298;2022-07-04T11:37:14;28.00;54.80
33827;DHT22;20128;45.582;5.298;2022-07-04T11:39:40;28.00;54.80
33827;DHT22;20128;45.582;5.298;2022-07-04T11:42:06;27.90;54.80
33827;DHT22;20128;45.582;5.298;2022-07-04T11:44:50;27.90;55.30
33827;DHT22;20128;45.582;5.298;2022-07-04T11:47:39;28.00;55.70
33827;DHT22;20128;45.582;5.298;2022-07-04T11:50:09;28.00;55.10
33827;DHT22;20128;45.582;5.298;2022-07-04T11:52:43;28.10;54.80
33827;DHT22;20128;45.582;5.298;2022-07-04T11:55:12;28.20;55.00
33827;DHT22;20128;45.582;5.298;2022-07-04T11:57:44;28.20;54.70
33827;DHT22;20128;45.582;5.298;2022-07-04T12:02:37;28.20;54.80
33827;DHT22;20128;45.582;5.298;2022-07-04T12:05:05;28.30;54.80
33827;DHT22;20128;45.582;5.298;2022-07-04T12:07:33;28.50;54.10
33827;DHT22;20128;45.582;5.298;2022-07-04T12:10:13;28.70;53.60
33827;DHT22;20128;45.582;5.298;2022-07-04T12:12:55;28.90;52.70
33827;DHT22;20128;45.582;5.298;2022-07-04T12:15:22;29.00;52.70
33827;DHT22;20128;45.582;5.298;2022-07-04T12:17:53;29.00;51.70
33827;DHT22;20128;45.582;5.298;2022-07-04T12:20:22;28.90;52.20
33827;DHT22;20128;45.582;5.298;2022-07-04T12:27:55;29.30;52.70
33827;DHT22;20128;45.582;5.298;2022-07-04T12:30:21;29.50;51.80
33827;DHT22;20128;45.582;5.298;2022-07-04T12:32:49;29.70;50.80
33827;DHT22;20128;45.582;5.298;2022-07-04T12:38:19;29.60;50.40
33827;DHT22;20128;45.582;5.298;2022-07-04T12:41:09;29.50;50.40
33827;DHT22;20128;45.582;5.298;2022-07-04T12:46:27;29.10;51.00
33827;DHT22;20128;45.582;5.298;2022-07-04T12:48:53;29.20;50.80
33827;DHT22;20128;45.582;5.298;2022-07-04T12:51:25;29.20;50.90
33827;DHT22;20128;45.582;5.298;2022-07-04T12:53:52;29.20;51.20
33827;DHT22;20128;45.582;5.298;2022-07-04T12:59:07;29.20;51.10
33827;DHT22;20128;45.582;5.298;2022-07-04T13:01:34;29.20;50.70
33827;DHT22;20128;45.582;5.298;2022-07-04T13:04:00;29.30;50.90
33827;DHT22;20128;45.582;5.298;2022-07-04T13:06:26;29.40;50.80
33827;DHT22;20128;45.582;5.298;2022-07-04T13:08:53;29.60;50.20
33827;DHT22;20128;45.582;5.298;2022-07-04T13:11:19;29.70;49.40
33827;DHT22;20128;45.582;5.298;2022-07-04T13:14:04;29.80;49.40
33827;DHT22;20128;45.582;5.298;2022-07-04T13:16:30;29.90;48.70
33827;DHT22;20128;45.582;5.298;2022-07-04T13:18:56;29.90;48.50
33827;DHT22;20128;45.582;5.298;2022-07-04T13:21:23;29.90;48.10
33827;DHT22;20128;45.582;5.298;2022-07-04T13:23:49;29.90;48.60
33827;DHT22;20128;45.582;5.298;2022-07-04T13:26:15;29.90;48.70
33827;DHT22;20128;45.582;5.298;2022-07-04T13:28:41;29.90;49.00
33827;DHT22;20128;45.582;5.298;2022-07-04T13:31:07;29.90;49.00
33827;DHT22;20128;45.582;5.298;2022-07-04T13:33:32;30.10;48.50
33827;DHT22;20128;45.582;5.298;2022-07-04T13:35:58;30.20;48.70
33827;DHT22;20128;45.582;5.298;2022-07-04T13:38:24;30.30;47.70
33827;DHT22;20128;45.582;5.298;2022-07-04T13:40:51;30.50;48.20
33827;DHT22;20128;45.582;5.298;2022-07-04T13:43:17;30.50;48.10
33827;DHT22;20128;45.582;5.298;2022-07-04T13:45:45;30.60;48.10
33827;DHT22;20128;45.582;5.298;2022-07-04T13:48:14;30.60;48.20
33827;DHT22;20128;45.582;5.298;2022-07-04T13:50:40;30.60;48.30
33827;DHT22;20128;45.582;5.298;2022-07-04T13:53:07;30.70;48.50
33827;DHT22;20128;45.582;5.298;2022-07-04T13:55:34;30.70;48.40
33827;DHT22;20128;45.582;5.298;2022-07-04T13:58:02;30.80;48.50
33827;DHT22;20128;45.582;5.298;2022-07-04T14:00:28;30.90;48.50
33827;DHT22;20128;45.582;5.298;2022-07-04T14:02:54;31.00;48.90
33827;DHT22;20128;45.582;5.298;2022-07-04T14:05:19;31.10;48.20
33827;DHT22;20128;45.582;5.298;2022-07-04T14:07:45;31.10;47.90
33827;DHT22;20128;45.582;5.298;2022-07-04T14:10:11;31.20;48.10
33827;DHT22;20128;45.582;5.298;2022-07-04T14:12:37;31.30;47.90
33827;DHT22;20128;45.582;5.298;2022-07-04T14:15:03;31.20;47.00
33827;DHT22;20128;45.582;5.298;2022-07-04T14:17:29;31.20;47.70
33827;DHT22;20128;45.582;5.298;2022-07-04T14:19:55;31.10;47.60
33827;DHT22;20128;45.582;5.298;2022-07-04T14:22:21;31.20;47.20
33827;DHT22;20128;45.582;5.298;2022-07-04T14:24:47;31.10;46.90
33827;DHT22;20128;45.582;5.298;2022-07-04T14:27:13;31.20;46.60
33827;DHT22;20128;45.582;5.298;2022-07-04T14:29:38;31.20;46.50
33827;DHT22;20128;45.582;5.298;2022-07-04T14:32:04;31.20;46.40
33827;DHT22;20128;45.582;5.298;2022-07-04T14:34:30;31.20;46.30
33827;DHT22;20128;45.582;5.298;2022-07-04T14:36:56;31.10;45.70
33827;DHT22;20128;45.582;5.298;2022-07-04T14:39:21;31.10;45.40
33827;DHT22;20128;45.582;5.298;2022-07-04T14:41:47;31.20;45.30
33827;DHT22;20128;45.582;5.298;2022-07-04T14:44:14;31.30;44.80
33827;DHT22;20128;45.582;5.298;2022-07-04T14:46:40;31.30;44.70
33827;DHT22;20128;45.582;5.298;2022-07-04T14:49:06;31.40;45.20
33827;DHT22;20128;45.582;5.298;2022-07-04T14:51:31;31.40;45.20
33827;DHT22;20128;45.582;5.298;2022-07-04T14:53:57;31.40;44.70
33827;DHT22;20128;45.582;5.298;2022-07-04T14:56:23;31.50;44.70
33827;DHT22;20128;45.582;5.298;2022-07-04T14:58:48;31.60;44.90
33827;DHT22;20128;45.582;5.298;2022-07-04T15:01:14;31.60;43.10
33827;DHT22;20128;45.582;5.298;2022-07-04T15:03:40;31.60;43.00
33827;DHT22;20128;45.582;5.298;2022-07-04T15:06:05;31.60;43.00
33827;DHT22;20128;45.582;5.298;2022-07-04T15:08:31;31.50;42.70
33827;DHT22;20128;45.582;5.298;2022-07-04T15:10:57;31.50;41.90
33827;DHT22;20128;45.582;5.298;2022-07-04T15:13:22;31.50;42.30
33827;DHT22;20128;45.582;5.298;2022-07-04T15:15:48;31.60;42.40
33827;DHT22;20128;45.582;5.298;2022-07-04T15:18:14;31.50;42.70
33827;DHT22;20128;45.582;5.298;2022-07-04T15:20:39;31.50;43.10
33827;DHT22;20128;45.582;5.298;2022-07-04T15:23:24;31.50;43.50
33827;DHT22;20128;45.582;5.298;2022-07-04T15:26:08;31.50;43.40
33827;DHT22;20128;45.582;5.298;2022-07-04T15:28:34;31.60;43.10
33827;DHT22;20128;45.582;5.298;2022-07-04T15:31:00;31.50;43.30
33827;DHT22;20128;45.582;5.298;2022-07-04T15:33:26;31.50;43.50
33827;DHT22;20128;45.582;5.298;2022-07-04T15:35:54;31.60;43.60
33827;DHT22;20128;45.582;5.298;2022-07-04T15:38:20;31.70;43.60
33827;DHT22;20128;45.582;5.298;2022-07-04T15:40:46;31.80;43.40
33827;DHT22;20128;45.582;5.298;2022-07-04T15:43:13;31.70;43.60
33827;DHT22;20128;45.582;5.298;2022-07-04T15:45:38;31.50;44.00
33827;DHT22;20128;45.582;5.298;2022-07-04T15:48:05;31.30;44.10
33827;DHT22;20128;45.582;5.298;2022-07-04T15:50:31;31.10;44.40
33827;DHT22;20128;45.582;5.298;2022-07-04T15:52:57;30.90;44.80
33827;DHT22;20128;45.582;5.298;2022-07-04T15:55:22;30.80;44.80
33827;DHT22;20128;45.582;5.298;2022-07-04T15:57:48;30.60;44.90
33827;DHT22;20128;45.582;5.298;2022-07-04T16:00:15;30.50;45.20
33827;DHT22;20128;45.582;5.298;2022-07-04T16:02:41;30.40;45.60
33827;DHT22;20128;45.582;5.298;2022-07-04T16:05:07;30.20;45.60
33827;DHT22;20128;45.582;5.298;2022-07-04T16:07:34;30.10;46.00
33827;DHT22;20128;45.582;5.298;2022-07-04T16:10:00;30.00;46.10
33827;DHT22;20128;45.582;5.298;2022-07-04T16:12:26;30.00;46.10